sensor_id;sensor_type;location;lat;lon;timestamp;P1;durP1;ratioP1;P2;durP2;ratioP2
37407;SDS011;24866;50.248;8.252;2022-12-11T00:02:07;31.27;;;15.07;;
37407;SDS011;24866;50.248;8.252;2022-12-11T00:04:36;33.90;;;15.88;;
37407;SDS011;24866;50.248;8.252;2022-12-11T00:07:06;31.02;;;15.15;;
37407;SDS011;24866;50.248;8.252;2022-12-11T00:09:36;34.40;;;14.85;;
37407;SDS011;24866;50.248;8.252;2022-12-11T00:12:08;31.23;;;15.50;;
37407;SDS011;24866;50.248;8.252;2022-12-11T00:14:38;31.02;;;15.38;;
37407;SDS011;24866;50.248;8.252;2022-12-11T00:17:08;32.97;;;16.60;;
37407;SDS011;24866;50.248;8.252;2022-12-11T00:19:38;28.27;;;14.85;;
37407;SDS011;24866;50.248;8.252;2022-12-11T00:22:08;30.80;;;15.10;;
37407;SDS011;24866;50.248;8.252;2022-12-11T00:24:38;32.35;;;15.93;;
37407;SDS011;24866;50.248;8.252;2022-12-11T00:27:09;31.00;;;16.42;;
37407;SDS011;24866;50.248;8.252;2022-12-11T00:29:39;29.52;;;16.10;;
37407;SDS011;24866;50.248;8.252;2022-12-11T00:32:09;29.95;;;14.52;;
37407;SDS011;24866;50.248;8.252;2022-12-11T00:34:39;32.97;;;15.77;;
37407;SDS011;24866;50.248;8.252;2022-12-11T00:37:09;31.42;;;14.40;;
37407;SDS011;24866;50.248;8.252;2022-12-11T00:39:38;29.60;;;14.80;;
37407;SDS011;24866;50.248;8.252;2022-12-11T00:42:10;38.33;;;15.88;;
37407;SDS011;24866;50.248;8.252;2022-12-11T00:44:40;30.65;;;15.38;;
37407;SDS011;24866;50.248;8.252;2022-12-11T00:47:10;29.83;;;14.32;;
37407;SDS011;24866;50.248;8.252;2022-12-11T00:49:42;34.58;;;15.98;;
37407;SDS011;24866;50.248;8.252;2022-12-11T00:52:12;34.75;;;16.25;;
37407;SDS011;24866;50.248;8.252;2022-12-11T00:54:44;35.90;;;16.67;;
37407;SDS011;24866;50.248;8.252;2022-12-11T00:57:16;31.48;;;15.52;;
37407;SDS011;24866;50.248;8.252;2022-12-11T00:59:45;36.20;;;16.38;;
37407;SDS011;24866;50.248;8.252;2022-12-11T01:02:15;31.13;;;16.40;;
37407;SDS011;24866;50.248;8.252;2022-12-11T01:04:45;30.80;;;15.15;;
37407;SDS011;24866;50.248;8.252;2022-12-11T01:07:15;34.70;;;16.08;;
37407;SDS011;24866;50.248;8.252;2022-12-11T01:09:47;33.72;;;15.48;;
37407;SDS011;24866;50.248;8.252;2022-12-11T01:12:36;31.85;;;16.33;;
37407;SDS011;24866;50.248;8.252;2022-12-11T01:15:06;33.00;;;17.08;;
37407;SDS011;24866;50.248;8.252;2022-12-11T01:17:36;35.55;;;17.42;;
37407;SDS011;24866;50.248;8.252;2022-12-11T01:20:06;32.42;;;16.63;;
37407;SDS011;24866;50.248;8.252;2022-12-11T01:22:37;33.65;;;16.98;;
37407;SDS011;24866;50.248;8.252;2022-12-11T01:25:07;42.63;;;17.13;;
37407;SDS011;24866;50.248;8.252;2022-12-11T01:27:40;33.22;;;15.85;;
37407;SDS011;24866;50.248;8.252;2022-12-11T01:30:10;31.45;;;15.95;;
37407;SDS011;24866;50.248;8.252;2022-12-11T01:32:41;31.65;;;16.02;;
37407;SDS011;24866;50.248;8.252;2022-12-11T01:35:11;32.63;;;16.30;;
37407;SDS011;24866;50.248;8.252;2022-12-11T01:37:41;34.35;;;16.17;;
37407;SDS011;24866;50.248;8.252;2022-12-11T01:40:11;33.50;;;16.77;;
37407;SDS011;24866;50.248;8.252;2022-12-11T01:42:44;36.33;;;18.35;;
37407;SDS011;24866;50.248;8.252;2022-12-11T01:45:22;37.47;;;17.60;;
37407;SDS011;24866;50.248;8.252;2022-12-11T01:47:57;35.15;;;16.73;;
37407;SDS011;24866;50.248;8.252;2022-12-11T01:50:30;31.85;;;17.00;;
37407;SDS011;24866;50.248;8.252;2022-12-11T01:53:03;36.70;;;17.15;;
37407;SDS011;24866;50.248;8.252;2022-12-11T01:58:07;35.65;;;16.80;;
37407;SDS011;24866;50.248;8.252;2022-12-11T02:03:08;41.85;;;18.02;;
37407;SDS011;24866;50.248;8.252;2022-12-11T02:05:38;38.00;;;18.20;;
37407;SDS011;24866;50.248;8.252;2022-12-11T02:08:08;37.90;;;19.02;;
37407;SDS011;24866;50.248;8.252;2022-12-11T02:10:42;40.20;;;19.58;;
37407;SDS011;24866;50.248;8.252;2022-12-11T02:13:32;38.42;;;19.13;;
37407;SDS011;24866;50.248;8.252;2022-12-11T02:16:09;33.88;;;17.70;;
37407;SDS011;24866;50.248;8.252;2022-12-11T02:21:25;39.05;;;18.63;;
37407;SDS011;24866;50.248;8.252;2022-12-11T02:27:12;38.25;;;19.30;;
37407;SDS011;24866;50.248;8.252;2022-12-11T02:29:49;40.13;;;20.15;;
37407;SDS011;24866;50.248;8.252;2022-12-11T02:32:22;41.55;;;20.83;;
37407;SDS011;24866;50.248;8.252;2022-12-11T02:34:59;44.22;;;20.42;;
37407;SDS011;24866;50.248;8.252;2022-12-11T02:37:35;40.92;;;21.33;;
37407;SDS011;24866;50.248;8.252;2022-12-11T02:40:08;40.80;;;21.45;;
37407;SDS011;24866;50.248;8.252;2022-12-11T02:42:41;39.08;;;19.45;;
37407;SDS011;24866;50.248;8.252;2022-12-11T02:47:46;37.65;;;18.67;;
37407;SDS011;24866;50.248;8.252;2022-12-11T02:50:19;44.90;;;20.00;;
37407;SDS011;24866;50.248;8.252;2022-12-11T02:52:50;38.70;;;19.42;;
37407;SDS011;24866;50.248;8.252;2022-12-11T02:55:24;42.33;;;21.30;;
37407;SDS011;24866;50.248;8.252;2022-12-11T02:57:59;40.03;;;20.33;;
37407;SDS011;24866;50.248;8.252;2022-12-11T03:00:33;39.70;;;19.92;;
37407;SDS011;24866;50.248;8.252;2022-12-11T03:03:04;39.65;;;19.23;;
37407;SDS011;24866;50.248;8.252;2022-12-11T03:05:34;38.05;;;19.52;;
37407;SDS011;24866;50.248;8.252;2022-12-11T03:08:04;36.95;;;18.35;;
37407;SDS011;24866;50.248;8.252;2022-12-11T03:10:34;42.15;;;19.75;;
37407;SDS011;24866;50.248;8.252;2022-12-11T03:13:04;42.13;;;20.02;;
37407;SDS011;24866;50.248;8.252;2022-12-11T03:15:38;40.63;;;20.02;;
37407;SDS011;24866;50.248;8.252;2022-12-11T03:18:17;40.15;;;20.50;;
37407;SDS011;24866;50.248;8.252;2022-12-11T03:20:53;40.17;;;19.83;;
37407;SDS011;24866;50.248;8.252;2022-12-11T03:23:32;42.78;;;20.10;;
37407;SDS011;24866;50.248;8.252;2022-12-11T03:26:07;40.80;;;20.55;;
37407;SDS011;24866;50.248;8.252;2022-12-11T03:28:43;38.38;;;19.20;;
37407;SDS011;24866;50.248;8.252;2022-12-11T03:31:19;45.05;;;21.08;;
37407;SDS011;24866;50.248;8.252;2022-12-11T03:33:55;40.42;;;20.20;;
37407;SDS011;24866;50.248;8.252;2022-12-11T03:36:29;38.08;;;20.23;;
37407;SDS011;24866;50.248;8.252;2022-12-11T03:41:35;42.97;;;18.67;;
37407;SDS011;24866;50.248;8.252;2022-12-11T03:46:39;42.30;;;19.67;;
37407;SDS011;24866;50.248;8.252;2022-12-11T03:49:14;44.35;;;21.23;;
37407;SDS011;24866;50.248;8.252;2022-12-11T03:51:47;35.50;;;19.55;;
37407;SDS011;24866;50.248;8.252;2022-12-11T03:54:20;45.28;;;22.17;;
37407;SDS011;24866;50.248;8.252;2022-12-11T03:56:52;43.03;;;21.50;;
37407;SDS011;24866;50.248;8.252;2022-12-11T03:59:26;47.35;;;22.88;;
37407;SDS011;24866;50.248;8.252;2022-12-11T04:01:57;47.15;;;21.23;;
37407;SDS011;24866;50.248;8.252;2022-12-11T04:04:28;44.58;;;22.02;;
37407;SDS011;24866;50.248;8.252;2022-12-11T04:06:58;46.45;;;22.05;;
37407;SDS011;24866;50.248;8.252;2022-12-11T04:09:27;40.85;;;20.85;;
37407;SDS011;24866;50.248;8.252;2022-12-11T04:11:57;36.58;;;18.77;;
37407;SDS011;24866;50.248;8.252;2022-12-11T04:14:27;39.92;;;20.58;;
37407;SDS011;24866;50.248;8.252;2022-12-11T04:17:16;38.60;;;20.60;;
37407;SDS011;24866;50.248;8.252;2022-12-11T04:20:00;40.33;;;19.23;;
37407;SDS011;24866;50.248;8.252;2022-12-11T04:22:47;39.35;;;19.20;;
37407;SDS011;24866;50.248;8.252;2022-12-11T04:25:34;35.45;;;17.85;;
37407;SDS011;24866;50.248;8.252;2022-12-11T04:28:04;36.45;;;18.73;;
37407;SDS011;24866;50.248;8.252;2022-12-11T04:30:34;38.72;;;18.98;;
37407;SDS011;24866;50.248;8.252;2022-12-11T04:33:05;37.88;;;19.02;;
37407;SDS011;24866;50.248;8.252;2022-12-11T04:35:35;37.25;;;19.05;;
37407;SDS011;24866;50.248;8.252;2022-12-11T04:38:05;39.80;;;20.42;;
37407;SDS011;24866;50.248;8.252;2022-12-11T04:40:35;40.08;;;19.77;;
37407;SDS011;24866;50.248;8.252;2022-12-11T04:43:05;40.95;;;18.52;;
37407;SDS011;24866;50.248;8.252;2022-12-11T04:45:35;39.53;;;18.42;;
37407;SDS011;24866;50.248;8.252;2022-12-11T04:48:06;34.33;;;15.85;;
37407;SDS011;24866;50.248;8.252;2022-12-11T04:50:36;34.42;;;16.27;;
37407;SDS011;24866;50.248;8.252;2022-12-11T04:53:06;32.10;;;14.90;;
37407;SDS011;24866;50.248;8.252;2022-12-11T04:55:36;30.10;;;13.82;;
37407;SDS011;24866;50.248;8.252;2022-12-11T04:58:07;28.73;;;13.82;;
37407;SDS011;24866;50.248;8.252;2022-12-11T05:00:38;29.45;;;13.80;;
37407;SDS011;24866;50.248;8.252;2022-12-11T05:03:10;29.65;;;13.45;;
37407;SDS011;24866;50.248;8.252;2022-12-11T05:05:40;30.65;;;14.20;;
37407;SDS011;24866;50.248;8.252;2022-12-11T05:08:15;30.33;;;14.85;;
37407;SDS011;24866;50.248;8.252;2022-12-11T05:10:53;33.15;;;15.45;;
37407;SDS011;24866;50.248;8.252;2022-12-11T05:13:23;29.83;;;14.02;;
37407;SDS011;24866;50.248;8.252;2022-12-11T05:15:55;27.00;;;13.13;;
37407;SDS011;24866;50.248;8.252;2022-12-11T05:18:27;29.27;;;14.23;;
37407;SDS011;24866;50.248;8.252;2022-12-11T05:20:57;25.33;;;12.02;;
37407;SDS011;24866;50.248;8.252;2022-12-11T05:23:28;28.75;;;12.60;;
37407;SDS011;24866;50.248;8.252;2022-12-11T05:25:59;26.92;;;11.85;;
37407;SDS011;24866;50.248;8.252;2022-12-11T05:28:30;23.88;;;11.15;;
37407;SDS011;24866;50.248;8.252;2022-12-11T05:31:02;24.80;;;10.87;;
37407;SDS011;24866;50.248;8.252;2022-12-11T05:33:35;21.77;;;10.32;;
37407;SDS011;24866;50.248;8.252;2022-12-11T05:36:06;23.30;;;11.40;;
37407;SDS011;24866;50.248;8.252;2022-12-11T05:38:36;25.80;;;10.40;;
37407;SDS011;24866;50.248;8.252;2022-12-11T05:41:06;23.75;;;10.57;;
37407;SDS011;24866;50.248;8.252;2022-12-11T05:43:37;20.08;;;9.80;;
37407;SDS011;24866;50.248;8.252;2022-12-11T05:46:07;21.50;;;9.68;;
37407;SDS011;24866;50.248;8.252;2022-12-11T05:48:40;22.90;;;10.80;;
37407;SDS011;24866;50.248;8.252;2022-12-11T05:51:11;20.42;;;9.52;;
37407;SDS011;24866;50.248;8.252;2022-12-11T05:53:42;19.50;;;9.52;;
37407;SDS011;24866;50.248;8.252;2022-12-11T05:56:13;18.33;;;9.23;;
37407;SDS011;24866;50.248;8.252;2022-12-11T05:58:45;23.08;;;10.63;;
37407;SDS011;24866;50.248;8.252;2022-12-11T06:01:16;21.60;;;8.55;;
37407;SDS011;24866;50.248;8.252;2022-12-11T06:03:49;21.55;;;9.18;;
37407;SDS011;24866;50.248;8.252;2022-12-11T06:06:19;21.08;;;8.45;;
37407;SDS011;24866;50.248;8.252;2022-12-11T06:08:49;17.83;;;8.73;;
37407;SDS011;24866;50.248;8.252;2022-12-11T06:11:20;23.90;;;10.23;;
37407;SDS011;24866;50.248;8.252;2022-12-11T06:13:50;21.90;;;10.73;;
37407;SDS011;24866;50.248;8.252;2022-12-11T06:16:21;24.40;;;10.15;;
37407;SDS011;24866;50.248;8.252;2022-12-11T06:18:53;22.75;;;10.82;;
37407;SDS011;24866;50.248;8.252;2022-12-11T06:21:23;21.45;;;9.82;;
37407;SDS011;24866;50.248;8.252;2022-12-11T06:26:26;21.23;;;9.43;;
37407;SDS011;24866;50.248;8.252;2022-12-11T06:28:57;18.08;;;9.45;;
37407;SDS011;24866;50.248;8.252;2022-12-11T06:31:27;17.10;;;8.90;;
37407;SDS011;24866;50.248;8.252;2022-12-11T06:33:58;17.10;;;9.55;;
37407;SDS011;24866;50.248;8.252;2022-12-11T06:36:28;18.35;;;8.65;;
37407;SDS011;24866;50.248;8.252;2022-12-11T06:38:58;20.08;;;8.55;;
37407;SDS011;24866;50.248;8.252;2022-12-11T06:41:28;18.23;;;9.48;;
37407;SDS011;24866;50.248;8.252;2022-12-11T06:43:58;19.98;;;7.90;;
37407;SDS011;24866;50.248;8.252;2022-12-11T06:46:28;17.23;;;7.95;;
37407;SDS011;24866;50.248;8.252;2022-12-11T06:48:59;19.20;;;8.90;;
37407;SDS011;24866;50.248;8.252;2022-12-11T06:51:29;20.25;;;8.93;;
37407;SDS011;24866;50.248;8.252;2022-12-11T06:53:59;15.88;;;7.65;;
37407;SDS011;24866;50.248;8.252;2022-12-11T06:56:29;18.25;;;8.52;;
37407;SDS011;24866;50.248;8.252;2022-12-11T06:58:59;15.90;;;8.25;;
37407;SDS011;24866;50.248;8.252;2022-12-11T07:01:29;17.05;;;7.72;;
37407;SDS011;24866;50.248;8.252;2022-12-11T07:04:00;18.05;;;9.00;;
37407;SDS011;24866;50.248;8.252;2022-12-11T07:06:30;19.77;;;10.10;;
37407;SDS011;24866;50.248;8.252;2022-12-11T07:09:02;18.08;;;8.40;;
37407;SDS011;24866;50.248;8.252;2022-12-11T07:11:32;22.42;;;10.23;;
37407;SDS011;24866;50.248;8.252;2022-12-11T07:14:02;21.70;;;9.63;;
37407;SDS011;24866;50.248;8.252;2022-12-11T07:16:32;22.55;;;10.65;;
37407;SDS011;24866;50.248;8.252;2022-12-11T07:19:03;19.80;;;8.93;;
37407;SDS011;24866;50.248;8.252;2022-12-11T07:21:33;24.48;;;10.48;;
37407;SDS011;24866;50.248;8.252;2022-12-11T07:24:04;22.98;;;9.93;;
37407;SDS011;24866;50.248;8.252;2022-12-11T07:26:34;22.77;;;9.30;;
37407;SDS011;24866;50.248;8.252;2022-12-11T07:29:04;20.35;;;10.85;;
37407;SDS011;24866;50.248;8.252;2022-12-11T07:31:34;25.90;;;11.98;;
37407;SDS011;24866;50.248;8.252;2022-12-11T07:34:05;24.38;;;11.15;;
37407;SDS011;24866;50.248;8.252;2022-12-11T07:36:35;23.17;;;11.63;;
37407;SDS011;24866;50.248;8.252;2022-12-11T07:39:05;27.35;;;12.05;;
37407;SDS011;24866;50.248;8.252;2022-12-11T07:41:36;27.77;;;11.77;;
37407;SDS011;24866;50.248;8.252;2022-12-11T07:44:06;26.70;;;11.57;;
37407;SDS011;24866;50.248;8.252;2022-12-11T07:46:36;43.47;;;13.93;;
37407;SDS011;24866;50.248;8.252;2022-12-11T07:49:07;32.55;;;12.30;;
37407;SDS011;24866;50.248;8.252;2022-12-11T07:51:37;28.30;;;13.07;;
37407;SDS011;24866;50.248;8.252;2022-12-11T07:54:09;29.70;;;13.40;;
37407;SDS011;24866;50.248;8.252;2022-12-11T07:56:43;25.60;;;12.15;;
37407;SDS011;24866;50.248;8.252;2022-12-11T07:59:14;26.08;;;12.77;;
37407;SDS011;24866;50.248;8.252;2022-12-11T08:01:44;22.25;;;11.02;;
37407;SDS011;24866;50.248;8.252;2022-12-11T08:04:16;25.50;;;13.18;;
37407;SDS011;24866;50.248;8.252;2022-12-11T08:06:46;24.42;;;12.30;;
37407;SDS011;24866;50.248;8.252;2022-12-11T08:09:16;24.58;;;11.65;;
37407;SDS011;24866;50.248;8.252;2022-12-11T08:11:49;23.30;;;10.95;;
37407;SDS011;24866;50.248;8.252;2022-12-11T08:14:20;25.10;;;10.43;;
37407;SDS011;24866;50.248;8.252;2022-12-11T08:16:50;28.55;;;13.05;;
37407;SDS011;24866;50.248;8.252;2022-12-11T08:19:21;29.63;;;13.00;;
37407;SDS011;24866;50.248;8.252;2022-12-11T08:22:03;24.05;;;11.35;;
37407;SDS011;24866;50.248;8.252;2022-12-11T08:24:33;25.88;;;11.90;;
37407;SDS011;24866;50.248;8.252;2022-12-11T08:27:03;26.77;;;13.70;;
37407;SDS011;24866;50.248;8.252;2022-12-11T08:29:33;27.17;;;12.95;;
37407;SDS011;24866;50.248;8.252;2022-12-11T08:32:03;28.77;;;12.63;;
37407;SDS011;24866;50.248;8.252;2022-12-11T08:34:35;21.90;;;10.63;;
37407;SDS011;24866;50.248;8.252;2022-12-11T08:37:05;23.05;;;10.85;;
37407;SDS011;24866;50.248;8.252;2022-12-11T08:39:35;27.02;;;12.65;;
37407;SDS011;24866;50.248;8.252;2022-12-11T08:42:05;30.85;;;14.23;;
37407;SDS011;24866;50.248;8.252;2022-12-11T08:44:35;31.60;;;13.55;;
37407;SDS011;24866;50.248;8.252;2022-12-11T08:47:05;70.18;;;27.38;;
37407;SDS011;24866;50.248;8.252;2022-12-11T08:49:38;52.85;;;20.58;;
37407;SDS011;24866;50.248;8.252;2022-12-11T08:52:08;52.72;;;21.73;;
37407;SDS011;24866;50.248;8.252;2022-12-11T08:54:38;27.80;;;13.18;;
37407;SDS011;24866;50.248;8.252;2022-12-11T08:57:08;44.65;;;21.38;;
37407;SDS011;24866;50.248;8.252;2022-12-11T08:59:38;22.65;;;11.57;;
37407;SDS011;24866;50.248;8.252;2022-12-11T09:02:08;22.92;;;11.70;;
37407;SDS011;24866;50.248;8.252;2022-12-11T09:04:41;26.30;;;11.80;;
37407;SDS011;24866;50.248;8.252;2022-12-11T09:07:11;24.75;;;11.02;;
37407;SDS011;24866;50.248;8.252;2022-12-11T09:09:41;22.17;;;11.30;;
37407;SDS011;24866;50.248;8.252;2022-12-11T09:12:11;21.90;;;10.93;;
37407;SDS011;24866;50.248;8.252;2022-12-11T09:14:41;27.23;;;12.55;;
37407;SDS011;24866;50.248;8.252;2022-12-11T09:17:11;24.80;;;13.38;;
37407;SDS011;24866;50.248;8.252;2022-12-11T09:19:42;23.38;;;12.82;;
37407;SDS011;24866;50.248;8.252;2022-12-11T09:22:14;25.65;;;13.02;;
37407;SDS011;24866;50.248;8.252;2022-12-11T09:24:44;27.25;;;13.10;;
37407;SDS011;24866;50.248;8.252;2022-12-11T09:27:14;21.48;;;11.35;;
37407;SDS011;24866;50.248;8.252;2022-12-11T09:29:44;22.73;;;11.55;;
37407;SDS011;24866;50.248;8.252;2022-12-11T09:32:14;27.52;;;13.68;;
37407;SDS011;24866;50.248;8.252;2022-12-11T09:34:45;26.83;;;12.95;;
37407;SDS011;24866;50.248;8.252;2022-12-11T09:37:18;28.08;;;11.38;;
37407;SDS011;24866;50.248;8.252;2022-12-11T09:39:49;17.60;;;9.35;;
37407;SDS011;24866;50.248;8.252;2022-12-11T09:42:20;21.67;;;9.60;;
37407;SDS011;24866;50.248;8.252;2022-12-11T09:44:56;19.35;;;9.45;;
37407;SDS011;24866;50.248;8.252;2022-12-11T09:47:31;21.75;;;10.85;;
37407;SDS011;24866;50.248;8.252;2022-12-11T09:50:05;20.90;;;10.00;;
37407;SDS011;24866;50.248;8.252;2022-12-11T09:52:45;19.98;;;9.15;;
37407;SDS011;24866;50.248;8.252;2022-12-11T09:55:28;20.98;;;10.85;;
37407;SDS011;24866;50.248;8.252;2022-12-11T09:58:04;22.60;;;10.90;;
37407;SDS011;24866;50.248;8.252;2022-12-11T10:00:43;35.50;;;15.00;;
37407;SDS011;24866;50.248;8.252;2022-12-11T10:06:22;24.95;;;12.05;;
37407;SDS011;24866;50.248;8.252;2022-12-11T10:08:59;21.90;;;10.90;;
37407;SDS011;24866;50.248;8.252;2022-12-11T10:11:41;27.60;;;13.05;;
37407;SDS011;24866;50.248;8.252;2022-12-11T10:14:21;23.58;;;11.13;;
37407;SDS011;24866;50.248;8.252;2022-12-11T10:17:01;20.33;;;10.15;;
37407;SDS011;24866;50.248;8.252;2022-12-11T10:19:37;22.35;;;10.50;;
37407;SDS011;24866;50.248;8.252;2022-12-11T10:22:16;20.30;;;10.32;;
37407;SDS011;24866;50.248;8.252;2022-12-11T10:24:50;32.47;;;14.07;;
37407;SDS011;24866;50.248;8.252;2022-12-11T10:27:26;24.40;;;11.63;;
37407;SDS011;24866;50.248;8.252;2022-12-11T10:30:00;20.77;;;10.23;;
37407;SDS011;24866;50.248;8.252;2022-12-11T10:32:40;22.35;;;11.10;;
37407;SDS011;24866;50.248;8.252;2022-12-11T10:35:18;24.10;;;10.48;;
37407;SDS011;24866;50.248;8.252;2022-12-11T10:37:56;19.23;;;9.63;;
37407;SDS011;24866;50.248;8.252;2022-12-11T10:40:37;27.30;;;12.30;;
37407;SDS011;24866;50.248;8.252;2022-12-11T10:43:10;21.00;;;10.32;;
37407;SDS011;24866;50.248;8.252;2022-12-11T10:45:48;25.52;;;12.45;;
37407;SDS011;24866;50.248;8.252;2022-12-11T10:48:20;32.63;;;13.70;;
37407;SDS011;24866;50.248;8.252;2022-12-11T10:50:58;31.67;;;15.02;;
37407;SDS011;24866;50.248;8.252;2022-12-11T10:53:32;25.50;;;12.20;;
37407;SDS011;24866;50.248;8.252;2022-12-11T10:56:02;25.52;;;12.80;;
37407;SDS011;24866;50.248;8.252;2022-12-11T10:58:33;23.63;;;12.93;;
37407;SDS011;24866;50.248;8.252;2022-12-11T11:01:09;25.02;;;13.05;;
37407;SDS011;24866;50.248;8.252;2022-12-11T11:03:51;28.80;;;12.77;;
37407;SDS011;24866;50.248;8.252;2022-12-11T11:06:24;24.25;;;12.65;;
37407;SDS011;24866;50.248;8.252;2022-12-11T11:08:57;27.02;;;11.98;;
37407;SDS011;24866;50.248;8.252;2022-12-11T11:11:30;24.85;;;11.95;;
37407;SDS011;24866;50.248;8.252;2022-12-11T11:14:06;25.60;;;12.07;;
37407;SDS011;24866;50.248;8.252;2022-12-11T11:16:42;24.08;;;11.70;;
37407;SDS011;24866;50.248;8.252;2022-12-11T11:19:16;23.20;;;11.20;;
37407;SDS011;24866;50.248;8.252;2022-12-11T11:21:51;22.60;;;10.40;;
37407;SDS011;24866;50.248;8.252;2022-12-11T11:24:27;25.90;;;13.73;;
37407;SDS011;24866;50.248;8.252;2022-12-11T11:27:01;32.83;;;14.98;;
37407;SDS011;24866;50.248;8.252;2022-12-11T11:29:39;33.92;;;16.60;;
37407;SDS011;24866;50.248;8.252;2022-12-11T11:32:14;33.15;;;14.82;;
37407;SDS011;24866;50.248;8.252;2022-12-11T11:34:47;30.00;;;14.80;;
37407;SDS011;24866;50.248;8.252;2022-12-11T11:37:21;27.85;;;13.25;;
37407;SDS011;24866;50.248;8.252;2022-12-11T11:39:56;26.48;;;14.20;;
37407;SDS011;24866;50.248;8.252;2022-12-11T11:42:34;29.33;;;15.15;;
37407;SDS011;24866;50.248;8.252;2022-12-11T11:45:11;30.63;;;15.02;;
37407;SDS011;24866;50.248;8.252;2022-12-11T11:47:47;28.15;;;13.68;;
37407;SDS011;24866;50.248;8.252;2022-12-11T11:50:25;30.77;;;16.10;;
37407;SDS011;24866;50.248;8.252;2022-12-11T11:53:01;29.70;;;15.00;;
37407;SDS011;24866;50.248;8.252;2022-12-11T11:55:39;31.45;;;14.70;;
37407;SDS011;24866;50.248;8.252;2022-12-11T11:58:17;28.65;;;13.10;;
37407;SDS011;24866;50.248;8.252;2022-12-11T12:00:52;26.42;;;13.90;;
37407;SDS011;24866;50.248;8.252;2022-12-11T12:03:23;24.90;;;12.80;;
37407;SDS011;24866;50.248;8.252;2022-12-11T12:05:54;33.33;;;15.00;;
37407;SDS011;24866;50.248;8.252;2022-12-11T12:08:34;30.67;;;12.98;;
37407;SDS011;24866;50.248;8.252;2022-12-11T12:11:13;29.17;;;12.15;;
37407;SDS011;24866;50.248;8.252;2022-12-11T12:13:54;26.77;;;12.90;;
37407;SDS011;24866;50.248;8.252;2022-12-11T12:16:38;35.70;;;15.75;;
37407;SDS011;24866;50.248;8.252;2022-12-11T12:19:15;35.95;;;15.32;;
37407;SDS011;24866;50.248;8.252;2022-12-11T12:22:06;28.35;;;14.38;;
37407;SDS011;24866;50.248;8.252;2022-12-11T12:24:46;30.33;;;13.75;;
37407;SDS011;24866;50.248;8.252;2022-12-11T12:27:25;27.98;;;12.77;;
37407;SDS011;24866;50.248;8.252;2022-12-11T12:30:02;26.40;;;12.90;;
37407;SDS011;24866;50.248;8.252;2022-12-11T12:32:40;28.17;;;13.88;;
37407;SDS011;24866;50.248;8.252;2022-12-11T12:35:21;61.95;;;25.50;;
37407;SDS011;24866;50.248;8.252;2022-12-11T12:38:01;42.50;;;18.35;;
37407;SDS011;24866;50.248;8.252;2022-12-11T12:40:39;29.73;;;14.45;;
37407;SDS011;24866;50.248;8.252;2022-12-11T12:43:31;25.85;;;12.75;;
37407;SDS011;24866;50.248;8.252;2022-12-11T12:46:29;27.27;;;13.38;;
37407;SDS011;24866;50.248;8.252;2022-12-11T12:49:13;24.83;;;12.68;;
37407;SDS011;24866;50.248;8.252;2022-12-11T12:51:48;27.55;;;14.00;;
37407;SDS011;24866;50.248;8.252;2022-12-11T12:54:20;27.52;;;12.45;;
37407;SDS011;24866;50.248;8.252;2022-12-11T12:57:03;23.67;;;12.70;;
37407;SDS011;24866;50.248;8.252;2022-12-11T12:59:35;28.40;;;12.73;;
37407;SDS011;24866;50.248;8.252;2022-12-11T13:02:05;23.88;;;13.23;;
37407;SDS011;24866;50.248;8.252;2022-12-11T13:04:53;27.77;;;11.88;;
37407;SDS011;24866;50.248;8.252;2022-12-11T13:07:27;29.52;;;12.93;;
37407;SDS011;24866;50.248;8.252;2022-12-11T13:10:01;28.20;;;13.57;;
37407;SDS011;24866;50.248;8.252;2022-12-11T13:12:42;28.42;;;12.57;;
37407;SDS011;24866;50.248;8.252;2022-12-11T13:15:29;25.85;;;13.30;;
37407;SDS011;24866;50.248;8.252;2022-12-11T13:18:03;26.05;;;12.88;;
37407;SDS011;24866;50.248;8.252;2022-12-11T13:20:55;23.58;;;12.27;;
37407;SDS011;24866;50.248;8.252;2022-12-11T13:23:26;24.67;;;12.73;;
37407;SDS011;24866;50.248;8.252;2022-12-11T13:25:59;22.45;;;12.15;;
37407;SDS011;24866;50.248;8.252;2022-12-11T13:28:44;25.40;;;12.57;;
37407;SDS011;24866;50.248;8.252;2022-12-11T13:31:27;31.73;;;13.60;;
37407;SDS011;24866;50.248;8.252;2022-12-11T13:34:12;24.25;;;12.60;;
37407;SDS011;24866;50.248;8.252;2022-12-11T13:36:47;24.02;;;11.75;;
37407;SDS011;24866;50.248;8.252;2022-12-11T13:39:18;22.95;;;11.75;;
37407;SDS011;24866;50.248;8.252;2022-12-11T13:41:53;26.65;;;13.82;;
37407;SDS011;24866;50.248;8.252;2022-12-11T13:44:26;27.42;;;13.85;;
37407;SDS011;24866;50.248;8.252;2022-12-11T13:47:00;31.27;;;14.88;;
37407;SDS011;24866;50.248;8.252;2022-12-11T13:49:33;32.88;;;16.85;;
37407;SDS011;24866;50.248;8.252;2022-12-11T13:52:06;25.83;;;12.88;;
37407;SDS011;24866;50.248;8.252;2022-12-11T13:54:46;26.05;;;12.68;;
37407;SDS011;24866;50.248;8.252;2022-12-11T13:57:18;20.95;;;11.07;;
37407;SDS011;24866;50.248;8.252;2022-12-11T13:59:50;24.35;;;12.40;;
37407;SDS011;24866;50.248;8.252;2022-12-11T14:02:23;31.55;;;16.70;;
37407;SDS011;24866;50.248;8.252;2022-12-11T14:04:56;25.60;;;13.15;;
37407;SDS011;24866;50.248;8.252;2022-12-11T14:07:29;28.52;;;12.30;;
37407;SDS011;24866;50.248;8.252;2022-12-11T14:10:04;22.17;;;11.40;;
37407;SDS011;24866;50.248;8.252;2022-12-11T14:12:37;24.30;;;11.95;;
37407;SDS011;24866;50.248;8.252;2022-12-11T14:15:12;25.67;;;12.60;;
37407;SDS011;24866;50.248;8.252;2022-12-11T14:17:44;24.00;;;11.45;;
37407;SDS011;24866;50.248;8.252;2022-12-11T14:20:16;26.73;;;12.50;;
37407;SDS011;24866;50.248;8.252;2022-12-11T14:22:49;27.55;;;11.43;;
37407;SDS011;24866;50.248;8.252;2022-12-11T14:25:21;25.05;;;12.23;;
37407;SDS011;24866;50.248;8.252;2022-12-11T14:27:53;24.27;;;12.48;;
37407;SDS011;24866;50.248;8.252;2022-12-11T14:30:25;27.15;;;12.00;;
37407;SDS011;24866;50.248;8.252;2022-12-11T14:32:57;26.77;;;12.23;;
37407;SDS011;24866;50.248;8.252;2022-12-11T14:35:32;23.83;;;11.85;;
37407;SDS011;24866;50.248;8.252;2022-12-11T14:38:09;24.58;;;12.35;;
37407;SDS011;24866;50.248;8.252;2022-12-11T14:40:46;23.65;;;12.23;;
37407;SDS011;24866;50.248;8.252;2022-12-11T14:43:21;23.70;;;12.02;;
37407;SDS011;24866;50.248;8.252;2022-12-11T14:45:57;47.55;;;23.08;;
37407;SDS011;24866;50.248;8.252;2022-12-11T14:48:31;43.33;;;21.73;;
37407;SDS011;24866;50.248;8.252;2022-12-11T14:51:07;44.30;;;23.52;;
37407;SDS011;24866;50.248;8.252;2022-12-11T14:53:44;47.95;;;23.52;;
37407;SDS011;24866;50.248;8.252;2022-12-11T14:56:17;46.50;;;24.38;;
37407;SDS011;24866;50.248;8.252;2022-12-11T14:58:51;42.70;;;21.73;;
37407;SDS011;24866;50.248;8.252;2022-12-11T15:01:26;51.10;;;26.25;;
37407;SDS011;24866;50.248;8.252;2022-12-11T15:06:31;48.78;;;22.77;;
37407;SDS011;24866;50.248;8.252;2022-12-11T15:09:13;49.72;;;23.35;;
37407;SDS011;24866;50.248;8.252;2022-12-11T15:11:49;51.90;;;24.30;;
37407;SDS011;24866;50.248;8.252;2022-12-11T15:14:20;50.05;;;25.90;;
37407;SDS011;24866;50.248;8.252;2022-12-11T15:16:53;51.33;;;27.40;;
37407;SDS011;24866;50.248;8.252;2022-12-11T15:19:26;58.33;;;25.40;;
37407;SDS011;24866;50.248;8.252;2022-12-11T15:22:02;56.75;;;27.15;;
37407;SDS011;24866;50.248;8.252;2022-12-11T15:24:35;53.30;;;26.27;;
37407;SDS011;24866;50.248;8.252;2022-12-11T15:27:13;55.25;;;26.42;;